地図

経路データ

SID SEASON NUMBER BASIN SUBBASIN NAME ISO_TIME NATURE LAT LON WMO_WIND WMO_PRES WMO_AGENCY TRACK_TYPE DIST2LAND LANDFALL IFLAG USA_AGENCY USA_ATCF_ID USA_LAT USA_LON USA_RECORD USA_STATUS USA_WIND USA_PRES USA_SSHS USA_R34_NE USA_R34_SE USA_R34_SW USA_R34_NW USA_R50_NE USA_R50_SE USA_R50_SW USA_R50_NW USA_R64_NE USA_R64_SE USA_R64_SW USA_R64_NW USA_POCI USA_ROCI USA_RMW USA_EYE TOKYO_LAT TOKYO_LON TOKYO_GRADE TOKYO_WIND TOKYO_PRES TOKYO_R50_DIR TOKYO_R50_LONG TOKYO_R50_SHORT TOKYO_R30_DIR TOKYO_R30_LONG TOKYO_R30_SHORT TOKYO_LAND CMA_LAT CMA_LON CMA_CAT CMA_WIND CMA_PRES HKO_LAT HKO_LON HKO_CAT HKO_WIND HKO_PRES NEWDELHI_LAT NEWDELHI_LON NEWDELHI_GRADE NEWDELHI_WIND NEWDELHI_PRES NEWDELHI_CI NEWDELHI_DP NEWDELHI_POCI REUNION_LAT REUNION_LON REUNION_TYPE REUNION_WIND REUNION_PRES REUNION_TNUM REUNION_CI REUNION_RMW REUNION_R34_NE REUNION_R34_SE REUNION_R34_SW REUNION_R34_NW REUNION_R50_NE REUNION_R50_SE REUNION_R50_SW REUNION_R50_NW REUNION_R64_NE REUNION_R64_SE REUNION_R64_SW REUNION_R64_NW BOM_LAT BOM_LON BOM_TYPE BOM_WIND BOM_PRES BOM_TNUM BOM_CI BOM_RMW BOM_R34_NE BOM_R34_SE BOM_R34_SW BOM_R34_NW BOM_R50_NE BOM_R50_SE BOM_R50_SW BOM_R50_NW BOM_R64_NE BOM_R64_SE BOM_R64_SW BOM_R64_NW BOM_ROCI BOM_POCI BOM_EYE BOM_POS_METHOD BOM_PRES_METHOD NADI_LAT NADI_LON NADI_CAT NADI_WIND NADI_PRES WELLINGTON_LAT WELLINGTON_LON WELLINGTON_WIND WELLINGTON_PRES DS824_LAT DS824_LON DS824_STAGE DS824_WIND DS824_PRES TD9636_LAT TD9636_LON TD9636_STAGE TD9636_WIND TD9636_PRES TD9635_LAT TD9635_LON TD9635_WIND TD9635_PRES TD9635_ROCI NEUMANN_LAT NEUMANN_LON NEUMANN_CLASS NEUMANN_WIND NEUMANN_PRES MLC_LAT MLC_LON MLC_CLASS MLC_WIND MLC_PRES USA_GUST BOM_GUST BOM_GUST_PER REUNION_GUST REUNION_GUST_PER USA_SEAHGT USA_SEARAD_NE USA_SEARAD_SE USA_SEARAD_SW USA_SEARAD_NW STORM_SPEED STORM_DIR
1986185N14256 1986 61 EP MM DARBY 1986-07-03 18:00:00 TS 13.5000 -104.500 25 hurdat_epa main 542 535 O_____________ hurdat_epa EP041986 13.5000 -104.500 TD 25 -1 13 292
1986185N14256 1986 61 EP MM DARBY 1986-07-03 21:00:00 TS 13.7529 -105.130 main 531 530 P_____________ EP041986 13.7529 -105.130 TD 27 -1 13 293
1986185N14256 1986 61 EP MM DARBY 1986-07-04 00:00:00 TS 14.0000 -105.700 30 hurdat_epa main 535 530 O_____________ hurdat_epa EP041986 14.0000 -105.700 TD 30 -1 11 296
1986185N14256 1986 61 EP MM DARBY 1986-07-04 03:00:00 TS 14.2423 -106.173 main 541 532 P_____________ EP041986 14.2423 -106.173 TD 30 -1 10 300
1986185N14256 1986 61 EP MM DARBY 1986-07-04 06:00:00 TS 14.5000 -106.600 30 hurdat_epa main 538 534 O_____________ hurdat_epa EP041986 14.5000 -106.600 TD 30 -1 10 304
1986185N14256 1986 61 EP MM DARBY 1986-07-04 09:00:00 TS 14.8074 -107.050 main 540 535 P_____________ EP041986 14.8074 -107.050 TD 30 -1 11 305
1986185N14256 1986 61 EP MM DARBY 1986-07-04 12:00:00 TS 15.1000 -107.500 30 hurdat_epa main 541 537 O_____________ hurdat_epa EP041986 15.1000 -107.500 TD 30 -1 10 300
1986185N14256 1986 61 EP MM DARBY 1986-07-04 15:00:00 TS 15.3074 -107.950 main 553 550 P_____________ EP041986 15.3074 -107.950 TD 30 -1 10 295
1986185N14256 1986 61 EP MM DARBY 1986-07-04 18:00:00 TS 15.5000 -108.400 30 hurdat_epa main 563 562 O_____________ hurdat_epa EP041986 15.5000 -108.400 TD 30 -1 10 295
1986185N14256 1986 61 EP MM DARBY 1986-07-04 21:00:00 TS 15.7275 -108.865 main 584 577 P_____________ EP041986 15.7275 -108.865 TD 30 -1 10 300
1986185N14256 1986 61 EP MM DARBY 1986-07-05 00:00:00 TS 16.0000 -109.300 30 hurdat_epa main 592 591 O_____________ hurdat_epa EP041986 16.0000 -109.300 TD 30 -1 10 309
1986185N14256 1986 61 EP MM DARBY 1986-07-05 03:00:00 TS 16.3348 -109.658 main 601 593 P_____________ EP041986 16.3348 -109.658 TD 30 -1 10 316
1986185N14256 1986 61 EP MM DARBY 1986-07-05 06:00:00 TS 16.7000 -110.000 30 hurdat_epa main 599 599 O_____________ hurdat_epa EP041986 16.7000 -110.000 TD 30 -1 10 315
1986185N14256 1986 61 EP MM DARBY 1986-07-05 09:00:00 TS 17.0500 -110.400 main 609 609 P_____________ EP041986 17.0500 -110.400 TD 30 -1 10 312
1986185N14256 1986 61 EP MM DARBY 1986-07-05 12:00:00 TS 17.4000 -110.800 30 hurdat_epa main 620 592 O_____________ hurdat_epa EP041986 17.4000 -110.800 TD 30 -1 10 315
1986185N14256 1986 61 EP MM DARBY 1986-07-05 15:00:00 TS 17.7574 -111.150 main 583 559 P_____________ EP041986 17.7574 -111.150 TD 32 -1 10 316
1986185N14256 1986 61 EP MM DARBY 1986-07-05 18:00:00 TS 18.1000 -111.500 35 hurdat_epa main 559 536 O_____________ hurdat_epa EP041986 18.1000 -111.500 TS 35 0 10 314
1986185N14256 1986 61 EP MM DARBY 1986-07-05 21:00:00 TS 18.4299 -111.885 main 540 522 P_____________ EP041986 18.4299 -111.885 TS 35 0 10 308
1986185N14256 1986 61 EP MM DARBY 1986-07-06 00:00:00 TS 18.7000 -112.300 35 hurdat_epa main 526 521 O_____________ hurdat_epa EP041986 18.7000 -112.300 TS 35 0 9 300
1986185N14256 1986 61 EP MM DARBY 1986-07-06 03:00:00 TS 18.8874 -112.735 main 527 527 P_____________ EP041986 18.8874 -112.735 TS 35 0 9 289
1986185N14256 1986 61 EP MM DARBY 1986-07-06 06:00:00 TS 19.0000 -113.200 35 hurdat_epa main 548 548 O_____________ hurdat_epa EP041986 19.0000 -113.200 TS 35 0 9 281
1986185N14256 1986 61 EP MM DARBY 1986-07-06 09:00:00 TS 19.0649 -113.693 main 572 572 P_____________ EP041986 19.0649 -113.693 TS 32 -1 10 276
1986185N14256 1986 61 EP MM DARBY 1986-07-06 12:00:00 TS 19.1000 -114.200 30 hurdat_epa main 608 608 O_____________ hurdat_epa EP041986 19.1000 -114.200 TD 30 -1 10 275
1986185N14256 1986 61 EP MM DARBY 1986-07-06 15:00:00 TS 19.1575 -114.715 main 639 639 P_____________ EP041986 19.1575 -114.715 TD 27 -1 10 276
1986185N14256 1986 61 EP MM DARBY 1986-07-06 18:00:00 TS 19.2000 -115.200 25 hurdat_epa main 679 679 O_____________ hurdat_epa EP041986 19.2000 -115.200 TD 25 -1 9 273
1986185N14256 1986 61 EP MM DARBY 1986-07-06 21:00:00 TS 19.1998 -115.615 main 710 710 P_____________ EP041986 19.1998 -115.615 TD 25 -1 8 270
1986185N14256 1986 61 EP MM DARBY 1986-07-07 00:00:00 TS 19.2000 -116.000 25 hurdat_epa main 733 733 O_____________ hurdat_epa EP041986 19.2000 -116.000 TD 25 -1 7 273
1986185N14256 1986 61 EP MM DARBY 1986-07-07 03:00:00 TS 19.2424 -116.400 main 757 754 P_____________ EP041986 19.2424 -116.400 TD 25 -1 8 278
1986185N14256 1986 61 EP MM DARBY 1986-07-07 06:00:00 TS 19.3000 -116.800 25 hurdat_epa main 773 773 O_____________ hurdat_epa EP041986 19.3000 -116.800 TD 25 -1 8 278
1986185N14256 1986 61 EP MM DARBY 1986-07-07 09:00:00 TS 19.3500 -117.215 main 791 791 P_____________ EP041986 19.3500 -117.215 TD 25 -1 8 278
1986185N14256 1986 61 EP MM DARBY 1986-07-07 12:00:00 TS 19.4000 -117.600 25 hurdat_epa main 819 819 O_____________ hurdat_epa EP041986 19.4000 -117.600 TD 25 -1 7 279
1986185N14256 1986 61 EP MM DARBY 1986-07-07 15:00:00 TS 19.4500 -117.920 main 833 833 P_____________ EP041986 19.4500 -117.920 TD 25 -1 6 280
1986185N14256 1986 61 EP MM DARBY 1986-07-07 18:00:00 TS 19.5000 -118.200 25 hurdat_epa main 855 O_____________ hurdat_epa EP041986 19.5000 -118.200 TD 25 -1 5 281

IBTrACS Databaseについて

本データベースは、米国NOAAが公開する1842年以降の世界の熱帯低気圧のベストトラックデータアーカイブInternational Best Track Archive for Climate Stewardship (IBTrACS)を、ウェブで閲覧しやすい形式に変換したものです。

最終更新日:2021-10-21